sensor_id;sensor_type;location;lat;lon;timestamp;temperature;humidity
20827;DHT22;10574;52.508;13.236;2022-10-04T00:04:25;12.90;99.90
20827;DHT22;10574;52.508;13.236;2022-10-04T00:07:02;12.80;99.90
20827;DHT22;10574;52.508;13.236;2022-10-04T00:12:30;12.80;99.90
20827;DHT22;10574;52.508;13.236;2022-10-04T00:14:57;12.80;99.90
20827;DHT22;10574;52.508;13.236;2022-10-04T00:17:29;12.80;99.90
20827;DHT22;10574;52.508;13.236;2022-10-04T00:19:59;12.80;99.90
20827;DHT22;10574;52.508;13.236;2022-10-04T00:22:31;12.80;99.90
20827;DHT22;10574;52.508;13.236;2022-10-04T00:25:14;12.80;99.90
20827;DHT22;10574;52.508;13.236;2022-10-04T00:31:23;12.80;99.90
20827;DHT22;10574;52.508;13.236;2022-10-04T00:36:44;12.80;99.90
20827;DHT22;10574;52.508;13.236;2022-10-04T00:44:13;12.70;99.90
20827;DHT22;10574;52.508;13.236;2022-10-04T00:46:40;12.70;99.90
20827;DHT22;10574;52.508;13.236;2022-10-04T00:49:09;12.70;99.90
20827;DHT22;10574;52.508;13.236;2022-10-04T00:54:39;12.70;99.90
20827;DHT22;10574;52.508;13.236;2022-10-04T00:57:07;12.70;99.90
20827;DHT22;10574;52.508;13.236;2022-10-04T00:59:43;12.70;99.90
20827;DHT22;10574;52.508;13.236;2022-10-04T01:02:15;12.60;99.90
20827;DHT22;10574;52.508;13.236;2022-10-04T01:04:55;12.60;99.90
20827;DHT22;10574;52.508;13.236;2022-10-04T01:07:34;12.60;99.90
20827;DHT22;10574;52.508;13.236;2022-10-04T01:10:03;12.60;99.90
20827;DHT22;10574;52.508;13.236;2022-10-04T01:12:42;12.60;99.90
20827;DHT22;10574;52.508;13.236;2022-10-04T01:15:13;12.60;99.90
20827;DHT22;10574;52.508;13.236;2022-10-04T01:17:40;12.60;99.90
20827;DHT22;10574;52.508;13.236;2022-10-04T01:20:36;12.60;99.90
20827;DHT22;10574;52.508;13.236;2022-10-04T01:22:58;12.60;99.90
20827;DHT22;10574;52.508;13.236;2022-10-04T01:25:44;12.50;99.90
20827;DHT22;10574;52.508;13.236;2022-10-04T01:28:12;12.50;99.90
20827;DHT22;10574;52.508;13.236;2022-10-04T01:30:40;12.50;99.90
20827;DHT22;10574;52.508;13.236;2022-10-04T01:33:08;12.50;99.90
20827;DHT22;10574;52.508;13.236;2022-10-04T01:35:37;12.50;99.90
20827;DHT22;10574;52.508;13.236;2022-10-04T01:38:05;12.50;99.90
20827;DHT22;10574;52.508;13.236;2022-10-04T01:40:35;12.50;99.90
20827;DHT22;10574;52.508;13.236;2022-10-04T01:43:09;12.50;99.90
20827;DHT22;10574;52.508;13.236;2022-10-04T01:45:46;12.40;99.90
20827;DHT22;10574;52.508;13.236;2022-10-04T01:48:21;12.40;99.90
20827;DHT22;10574;52.508;13.236;2022-10-04T01:50:52;12.40;99.90
20827;DHT22;10574;52.508;13.236;2022-10-04T01:53:27;12.40;99.90
20827;DHT22;10574;52.508;13.236;2022-10-04T01:56:11;12.30;99.90
20827;DHT22;10574;52.508;13.236;2022-10-04T01:58:53;12.40;99.90
20827;DHT22;10574;52.508;13.236;2022-10-04T02:01:25;12.30;99.90
20827;DHT22;10574;52.508;13.236;2022-10-04T02:03:58;12.30;99.90
20827;DHT22;10574;52.508;13.236;2022-10-04T02:06:26;12.30;99.90
20827;DHT22;10574;52.508;13.236;2022-10-04T02:08:55;12.30;99.90
20827;DHT22;10574;52.508;13.236;2022-10-04T02:11:26;12.20;99.90
20827;DHT22;10574;52.508;13.236;2022-10-04T02:13:56;12.20;99.90
20827;DHT22;10574;52.508;13.236;2022-10-04T02:16:24;12.20;99.90
20827;DHT22;10574;52.508;13.236;2022-10-04T02:18:53;12.20;99.90
20827;DHT22;10574;52.508;13.236;2022-10-04T02:21:22;12.20;99.90
20827;DHT22;10574;52.508;13.236;2022-10-04T02:23:51;12.10;99.90
20827;DHT22;10574;52.508;13.236;2022-10-04T02:26:19;12.20;99.90
20827;DHT22;10574;52.508;13.236;2022-10-04T02:28:48;12.10;99.90
20827;DHT22;10574;52.508;13.236;2022-10-04T02:31:18;12.20;99.90
20827;DHT22;10574;52.508;13.236;2022-10-04T02:34:04;12.10;99.90
20827;DHT22;10574;52.508;13.236;2022-10-04T02:36:33;12.10;99.90
20827;DHT22;10574;52.508;13.236;2022-10-04T02:39:13;12.10;99.90
20827;DHT22;10574;52.508;13.236;2022-10-04T02:41:55;12.10;99.90
20827;DHT22;10574;52.508;13.236;2022-10-04T02:44:18;12.10;99.90
20827;DHT22;10574;52.508;13.236;2022-10-04T02:49:38;12.00;99.90
20827;DHT22;10574;52.508;13.236;2022-10-04T02:52:06;12.00;99.90
20827;DHT22;10574;52.508;13.236;2022-10-04T02:54:39;11.90;99.90
20827;DHT22;10574;52.508;13.236;2022-10-04T02:57:21;11.90;99.90
20827;DHT22;10574;52.508;13.236;2022-10-04T02:59:50;11.90;99.90
20827;DHT22;10574;52.508;13.236;2022-10-04T03:02:29;11.80;99.90
20827;DHT22;10574;52.508;13.236;2022-10-04T03:04:59;11.80;99.90
20827;DHT22;10574;52.508;13.236;2022-10-04T03:07:30;11.70;99.90
20827;DHT22;10574;52.508;13.236;2022-10-04T03:09:58;11.70;99.90
20827;DHT22;10574;52.508;13.236;2022-10-04T03:12:26;11.70;99.90
20827;DHT22;10574;52.508;13.236;2022-10-04T03:14:54;11.70;99.90
20827;DHT22;10574;52.508;13.236;2022-10-04T03:17:22;11.60;99.90
20827;DHT22;10574;52.508;13.236;2022-10-04T03:19:51;11.60;99.90
20827;DHT22;10574;52.508;13.236;2022-10-04T03:22:18;11.60;99.90
20827;DHT22;10574;52.508;13.236;2022-10-04T03:24:54;11.50;99.90
20827;DHT22;10574;52.508;13.236;2022-10-04T03:27:32;11.50;99.90
20827;DHT22;10574;52.508;13.236;2022-10-04T03:30:01;11.50;99.90
20827;DHT22;10574;52.508;13.236;2022-10-04T03:32:29;11.50;99.90
20827;DHT22;10574;52.508;13.236;2022-10-04T03:35:02;11.50;99.90
20827;DHT22;10574;52.508;13.236;2022-10-04T03:37:34;11.40;99.90
20827;DHT22;10574;52.508;13.236;2022-10-04T03:40:01;11.40;99.90
20827;DHT22;10574;52.508;13.236;2022-10-04T03:42:32;11.40;99.90
20827;DHT22;10574;52.508;13.236;2022-10-04T03:45:10;11.40;99.90
20827;DHT22;10574;52.508;13.236;2022-10-04T03:47:38;11.40;99.90
20827;DHT22;10574;52.508;13.236;2022-10-04T03:50:18;11.40;99.90
20827;DHT22;10574;52.508;13.236;2022-10-04T03:52:56;11.50;99.90
20827;DHT22;10574;52.508;13.236;2022-10-04T03:55:24;11.50;99.90
20827;DHT22;10574;52.508;13.236;2022-10-04T03:57:53;11.60;99.90
20827;DHT22;10574;52.508;13.236;2022-10-04T04:00:21;11.60;99.90
20827;DHT22;10574;52.508;13.236;2022-10-04T04:02:57;11.60;99.90
20827;DHT22;10574;52.508;13.236;2022-10-04T04:10:56;11.70;99.90
20827;DHT22;10574;52.508;13.236;2022-10-04T04:16:14;11.70;99.90
20827;DHT22;10574;52.508;13.236;2022-10-04T04:18:43;11.80;99.90
20827;DHT22;10574;52.508;13.236;2022-10-04T04:21:15;11.80;99.90
20827;DHT22;10574;52.508;13.236;2022-10-04T04:23:58;11.80;99.90
20827;DHT22;10574;52.508;13.236;2022-10-04T04:26:32;11.90;99.90
20827;DHT22;10574;52.508;13.236;2022-10-04T04:31:43;11.90;99.90
20827;DHT22;10574;52.508;13.236;2022-10-04T04:34:30;11.80;99.90
20827;DHT22;10574;52.508;13.236;2022-10-04T04:37:00;11.90;99.90
20827;DHT22;10574;52.508;13.236;2022-10-04T04:39:30;11.80;99.90
20827;DHT22;10574;52.508;13.236;2022-10-04T04:44:53;11.80;99.90
20827;DHT22;10574;52.508;13.236;2022-10-04T04:47:30;11.70;99.90
20827;DHT22;10574;52.508;13.236;2022-10-04T04:50:15;11.70;99.90
20827;DHT22;10574;52.508;13.236;2022-10-04T04:52:46;11.70;99.90
20827;DHT22;10574;52.508;13.236;2022-10-04T04:55:18;11.70;99.90
20827;DHT22;10574;52.508;13.236;2022-10-04T04:57:48;11.70;99.90
20827;DHT22;10574;52.508;13.236;2022-10-04T05:00:19;11.80;99.90
20827;DHT22;10574;52.508;13.236;2022-10-04T05:02:54;11.80;99.90
20827;DHT22;10574;52.508;13.236;2022-10-04T05:05:26;11.80;99.90
20827;DHT22;10574;52.508;13.236;2022-10-04T05:10:49;11.90;99.90
20827;DHT22;10574;52.508;13.236;2022-10-04T05:13:19;11.90;99.90
20827;DHT22;10574;52.508;13.236;2022-10-04T05:15:48;11.90;99.90
20827;DHT22;10574;52.508;13.236;2022-10-04T05:18:33;12.00;99.90
20827;DHT22;10574;52.508;13.236;2022-10-04T05:21:06;12.00;99.90
20827;DHT22;10574;52.508;13.236;2022-10-04T05:23:34;11.90;99.90
20827;DHT22;10574;52.508;13.236;2022-10-04T05:26:03;12.00;99.90
20827;DHT22;10574;52.508;13.236;2022-10-04T05:28:32;12.00;99.90
20827;DHT22;10574;52.508;13.236;2022-10-04T05:31:16;12.00;99.90
20827;DHT22;10574;52.508;13.236;2022-10-04T05:33:45;12.00;99.90
20827;DHT22;10574;52.508;13.236;2022-10-04T05:39:27;12.10;99.90
20827;DHT22;10574;52.508;13.236;2022-10-04T05:44:37;12.00;99.90
20827;DHT22;10574;52.508;13.236;2022-10-04T05:47:07;12.00;99.90
20827;DHT22;10574;52.508;13.236;2022-10-04T05:49:39;12.00;99.90
20827;DHT22;10574;52.508;13.236;2022-10-04T05:52:12;12.00;99.90
20827;DHT22;10574;52.508;13.236;2022-10-04T05:54:36;12.00;99.90
20827;DHT22;10574;52.508;13.236;2022-10-04T05:57:30;12.00;99.90
20827;DHT22;10574;52.508;13.236;2022-10-04T06:00:03;12.10;99.90
20827;DHT22;10574;52.508;13.236;2022-10-04T06:24:19;12.30;99.90
20827;DHT22;10574;52.508;13.236;2022-10-04T06:26:51;12.30;99.90
20827;DHT22;10574;52.508;13.236;2022-10-04T06:29:21;12.40;99.90
20827;DHT22;10574;52.508;13.236;2022-10-04T06:32:19;12.40;99.90
20827;DHT22;10574;52.508;13.236;2022-10-04T06:37:29;12.40;99.90
20827;DHT22;10574;52.508;13.236;2022-10-04T06:40:03;12.40;99.90
20827;DHT22;10574;52.508;13.236;2022-10-04T06:48:18;12.40;99.90
20827;DHT22;10574;52.508;13.236;2022-10-04T06:50:54;12.40;99.90
20827;DHT22;10574;52.508;13.236;2022-10-04T07:01:55;12.40;99.90
20827;DHT22;10574;52.508;13.236;2022-10-04T07:04:38;12.50;99.90
20827;DHT22;10574;52.508;13.236;2022-10-04T07:12:39;12.60;99.90
20827;DHT22;10574;52.508;13.236;2022-10-04T07:15:15;12.60;99.90
20827;DHT22;10574;52.508;13.236;2022-10-04T07:17:40;12.60;99.90
20827;DHT22;10574;52.508;13.236;2022-10-04T07:20:25;12.60;99.90
20827;DHT22;10574;52.508;13.236;2022-10-04T07:23:04;12.70;99.90
20827;DHT22;10574;52.508;13.236;2022-10-04T07:25:40;12.70;99.90
20827;DHT22;10574;52.508;13.236;2022-10-04T07:31:02;12.80;99.90
20827;DHT22;10574;52.508;13.236;2022-10-04T07:33:40;12.80;99.90
20827;DHT22;10574;52.508;13.236;2022-10-04T07:36:07;12.90;99.90
20827;DHT22;10574;52.508;13.236;2022-10-04T07:38:37;12.80;99.90
20827;DHT22;10574;52.508;13.236;2022-10-04T07:41:17;12.80;99.90
20827;DHT22;10574;52.508;13.236;2022-10-04T07:43:47;12.80;99.90
20827;DHT22;10574;52.508;13.236;2022-10-04T07:49:02;12.90;99.90
20827;DHT22;10574;52.508;13.236;2022-10-04T07:51:34;13.00;99.90
20827;DHT22;10574;52.508;13.236;2022-10-04T07:54:14;13.00;99.90
20827;DHT22;10574;52.508;13.236;2022-10-04T07:56:46;13.00;99.90
20827;DHT22;10574;52.508;13.236;2022-10-04T08:02:26;13.10;99.90
20827;DHT22;10574;52.508;13.236;2022-10-04T08:08:28;13.20;99.90
20827;DHT22;10574;52.508;13.236;2022-10-04T08:10:35;13.20;99.90
20827;DHT22;10574;52.508;13.236;2022-10-04T08:13:37;13.40;99.90
20827;DHT22;10574;52.508;13.236;2022-10-04T08:16:13;13.50;99.90
20827;DHT22;10574;52.508;13.236;2022-10-04T08:19:42;13.60;99.90
20827;DHT22;10574;52.508;13.236;2022-10-04T08:21:28;13.60;99.90
20827;DHT22;10574;52.508;13.236;2022-10-04T08:24:06;13.50;99.90
20827;DHT22;10574;52.508;13.236;2022-10-04T08:26:56;13.50;99.90
20827;DHT22;10574;52.508;13.236;2022-10-04T08:32:26;13.70;99.90
20827;DHT22;10574;52.508;13.236;2022-10-04T08:35:13;13.80;99.90
20827;DHT22;10574;52.508;13.236;2022-10-04T08:46:22;14.10;99.90
20827;DHT22;10574;52.508;13.236;2022-10-04T09:06:30;14.40;99.90
20827;DHT22;10574;52.508;13.236;2022-10-04T09:09:12;14.50;99.90
20827;DHT22;10574;52.508;13.236;2022-10-04T09:11:56;14.60;99.90
20827;DHT22;10574;52.508;13.236;2022-10-04T09:14:49;14.60;99.90
20827;DHT22;10574;52.508;13.236;2022-10-04T09:17:22;14.60;99.90
20827;DHT22;10574;52.508;13.236;2022-10-04T09:20:01;14.70;99.90
20827;DHT22;10574;52.508;13.236;2022-10-04T09:22:47;14.80;99.90
20827;DHT22;10574;52.508;13.236;2022-10-04T09:25:39;14.80;99.90
20827;DHT22;10574;52.508;13.236;2022-10-04T09:28:13;14.80;99.90
20827;DHT22;10574;52.508;13.236;2022-10-04T09:36:34;14.80;99.90
20827;DHT22;10574;52.508;13.236;2022-10-04T09:41:55;14.80;99.90
20827;DHT22;10574;52.508;13.236;2022-10-04T09:44:29;15.00;99.90
20827;DHT22;10574;52.508;13.236;2022-10-04T09:52:53;15.10;99.90
20827;DHT22;10574;52.508;13.236;2022-10-04T10:01:22;15.90;99.90
20827;DHT22;10574;52.508;13.236;2022-10-04T10:12:51;16.20;99.90
20827;DHT22;10574;52.508;13.236;2022-10-04T10:18:23;16.50;99.90
20827;DHT22;10574;52.508;13.236;2022-10-04T10:26:45;16.30;99.90
20827;DHT22;10574;52.508;13.236;2022-10-04T10:31:49;16.30;99.90
20827;DHT22;10574;52.508;13.236;2022-10-04T10:34:40;16.30;99.90
20827;DHT22;10574;52.508;13.236;2022-10-04T10:37:09;16.30;99.90
20827;DHT22;10574;52.508;13.236;2022-10-04T10:45:17;16.20;99.90
20827;DHT22;10574;52.508;13.236;2022-10-04T10:56:33;16.40;99.90
20827;DHT22;10574;52.508;13.236;2022-10-04T11:04:54;16.50;99.90
20827;DHT22;10574;52.508;13.236;2022-10-04T11:07:32;16.40;99.90
20827;DHT22;10574;52.508;13.236;2022-10-04T11:16:16;16.50;99.90
20827;DHT22;10574;52.508;13.236;2022-10-04T11:27:29;17.00;99.90
20827;DHT22;10574;52.508;13.236;2022-10-04T11:30:07;17.10;99.90
20827;DHT22;10574;52.508;13.236;2022-10-04T11:35:50;17.30;99.90
20827;DHT22;10574;52.508;13.236;2022-10-04T11:57:58;16.80;99.90
20827;DHT22;10574;52.508;13.236;2022-10-04T12:00:25;16.80;99.90
20827;DHT22;10574;52.508;13.236;2022-10-04T12:08:48;16.90;99.90
20827;DHT22;10574;52.508;13.236;2022-10-04T12:11:50;17.00;99.90
20827;DHT22;10574;52.508;13.236;2022-10-04T12:14:36;17.10;99.90
20827;DHT22;10574;52.508;13.236;2022-10-04T12:26:12;17.60;99.90
20827;DHT22;10574;52.508;13.236;2022-10-04T12:29:03;17.50;99.90
20827;DHT22;10574;52.508;13.236;2022-10-04T12:40:06;17.20;99.90
20827;DHT22;10574;52.508;13.236;2022-10-04T12:42:52;17.20;99.90
20827;DHT22;10574;52.508;13.236;2022-10-04T12:48:29;17.40;99.90
20827;DHT22;10574;52.508;13.236;2022-10-04T12:51:03;17.60;99.90
20827;DHT22;10574;52.508;13.236;2022-10-04T12:53:45;17.80;99.90
20827;DHT22;10574;52.508;13.236;2022-10-04T12:56:14;17.70;99.90
20827;DHT22;10574;52.508;13.236;2022-10-04T13:01:28;17.30;99.90
20827;DHT22;10574;52.508;13.236;2022-10-04T13:09:32;17.40;99.90
20827;DHT22;10574;52.508;13.236;2022-10-04T13:12:06;17.50;99.90
20827;DHT22;10574;52.508;13.236;2022-10-04T13:17:44;17.60;99.90
20827;DHT22;10574;52.508;13.236;2022-10-04T13:20:19;17.70;99.90
20827;DHT22;10574;52.508;13.236;2022-10-04T13:23:02;17.80;99.90
20827;DHT22;10574;52.508;13.236;2022-10-04T13:25:34;17.90;99.90
20827;DHT22;10574;52.508;13.236;2022-10-04T13:28:11;18.00;99.90
20827;DHT22;10574;52.508;13.236;2022-10-04T13:36:16;17.90;99.90
20827;DHT22;10574;52.508;13.236;2022-10-04T13:55:40;17.80;99.90
20827;DHT22;10574;52.508;13.236;2022-10-04T14:06:47;18.50;99.90
20827;DHT22;10574;52.508;13.236;2022-10-04T14:09:36;18.40;99.90
20827;DHT22;10574;52.508;13.236;2022-10-04T14:35:10;18.90;99.90
20827;DHT22;10574;52.508;13.236;2022-10-04T14:37:56;19.00;99.90
20827;DHT22;10574;52.508;13.236;2022-10-04T14:52:17;18.00;99.90
20827;DHT22;10574;52.508;13.236;2022-10-04T14:54:55;17.90;99.90
20827;DHT22;10574;52.508;13.236;2022-10-04T15:01:16;17.80;99.90
20827;DHT22;10574;52.508;13.236;2022-10-04T15:08:45;17.60;99.90
20827;DHT22;10574;52.508;13.236;2022-10-04T15:11:13;17.50;99.90
20827;DHT22;10574;52.508;13.236;2022-10-04T15:24:45;17.20;99.90
20827;DHT22;10574;52.508;13.236;2022-10-04T15:32:53;17.10;99.90
20827;DHT22;10574;52.508;13.236;2022-10-04T15:38:29;17.00;99.90
20827;DHT22;10574;52.508;13.236;2022-10-04T16:01:10;16.40;99.90
20827;DHT22;10574;52.508;13.236;2022-10-04T16:06:22;16.20;99.90
20827;DHT22;10574;52.508;13.236;2022-10-04T16:14:38;16.00;99.90
20827;DHT22;10574;52.508;13.236;2022-10-04T16:22:26;15.70;99.90
20827;DHT22;10574;52.508;13.236;2022-10-04T16:24:52;15.70;99.90
20827;DHT22;10574;52.508;13.236;2022-10-04T16:27:41;15.60;99.90
20827;DHT22;10574;52.508;13.236;2022-10-04T16:30:29;15.60;99.90
20827;DHT22;10574;52.508;13.236;2022-10-04T16:35:42;15.40;99.90
20827;DHT22;10574;52.508;13.236;2022-10-04T16:40:57;15.20;99.90
20827;DHT22;10574;52.508;13.236;2022-10-04T16:43:29;15.10;99.90
20827;DHT22;10574;52.508;13.236;2022-10-04T16:48:57;15.00;99.90
20827;DHT22;10574;52.508;13.236;2022-10-04T16:51:35;14.90;99.90
20827;DHT22;10574;52.508;13.236;2022-10-04T16:57:10;14.80;99.90
20827;DHT22;10574;52.508;13.236;2022-10-04T17:18:41;14.10;99.90
20827;DHT22;10574;52.508;13.236;2022-10-04T17:21:23;14.00;99.90
20827;DHT22;10574;52.508;13.236;2022-10-04T17:33:01;13.80;99.90
20827;DHT22;10574;52.508;13.236;2022-10-04T17:38:24;13.70;99.90
20827;DHT22;10574;52.508;13.236;2022-10-04T17:40:53;13.60;99.90
20827;DHT22;10574;52.508;13.236;2022-10-04T17:43:26;13.60;99.90
20827;DHT22;10574;52.508;13.236;2022-10-04T17:46:09;13.50;99.90
20827;DHT22;10574;52.508;13.236;2022-10-04T17:48:39;13.50;99.90
20827;DHT22;10574;52.508;13.236;2022-10-04T17:51:42;13.40;99.90
20827;DHT22;10574;52.508;13.236;2022-10-04T17:54:43;13.40;99.90
20827;DHT22;10574;52.508;13.236;2022-10-04T18:00:08;13.30;99.90
20827;DHT22;10574;52.508;13.236;2022-10-04T18:05:46;13.30;99.90
20827;DHT22;10574;52.508;13.236;2022-10-04T18:11:15;13.10;99.90
20827;DHT22;10574;52.508;13.236;2022-10-04T18:13:32;13.10;99.90
20827;DHT22;10574;52.508;13.236;2022-10-04T18:16:22;13.00;99.90
20827;DHT22;10574;52.508;13.236;2022-10-04T18:18:49;13.10;99.90
20827;DHT22;10574;52.508;13.236;2022-10-04T18:21:28;13.10;99.90
20827;DHT22;10574;52.508;13.236;2022-10-04T18:23:57;13.00;99.90
20827;DHT22;10574;52.508;13.236;2022-10-04T18:26:28;13.00;99.90
20827;DHT22;10574;52.508;13.236;2022-10-04T18:28:58;13.00;99.90
20827;DHT22;10574;52.508;13.236;2022-10-04T18:31:29;13.00;99.90
20827;DHT22;10574;52.508;13.236;2022-10-04T18:34:06;12.90;99.90
20827;DHT22;10574;52.508;13.236;2022-10-04T18:36:29;12.90;99.90
20827;DHT22;10574;52.508;13.236;2022-10-04T18:41:52;12.90;99.90
20827;DHT22;10574;52.508;13.236;2022-10-04T18:44:24;12.80;99.90
20827;DHT22;10574;52.508;13.236;2022-10-04T18:46:56;12.80;99.90
20827;DHT22;10574;52.508;13.236;2022-10-04T18:49:28;12.80;99.90
20827;DHT22;10574;52.508;13.236;2022-10-04T19:00:12;12.70;99.90
20827;DHT22;10574;52.508;13.236;2022-10-04T19:03:19;12.70;99.90
20827;DHT22;10574;52.508;13.236;2022-10-04T19:06:00;12.70;99.90
20827;DHT22;10574;52.508;13.236;2022-10-04T19:16:35;12.40;99.90
20827;DHT22;10574;52.508;13.236;2022-10-04T19:21:52;12.40;99.90
20827;DHT22;10574;52.508;13.236;2022-10-04T19:24:54;12.30;99.90
20827;DHT22;10574;52.508;13.236;2022-10-04T19:27:41;12.30;99.90
20827;DHT22;10574;52.508;13.236;2022-10-04T19:35:41;12.20;99.90
20827;DHT22;10574;52.508;13.236;2022-10-04T19:38:36;12.20;99.90
20827;DHT22;10574;52.508;13.236;2022-10-04T19:41:05;12.20;99.90
20827;DHT22;10574;52.508;13.236;2022-10-04T19:48:49;12.20;99.90
20827;DHT22;10574;52.508;13.236;2022-10-04T19:51:37;12.20;99.90
20827;DHT22;10574;52.508;13.236;2022-10-04T19:54:13;12.10;99.90
20827;DHT22;10574;52.508;13.236;2022-10-04T19:56:44;12.10;99.90
20827;DHT22;10574;52.508;13.236;2022-10-04T19:59:17;12.10;99.90
20827;DHT22;10574;52.508;13.236;2022-10-04T20:01:46;12.10;99.90
20827;DHT22;10574;52.508;13.236;2022-10-04T20:04:16;12.10;99.90
20827;DHT22;10574;52.508;13.236;2022-10-04T20:07:26;12.10;99.90
20827;DHT22;10574;52.508;13.236;2022-10-04T20:12:32;12.00;99.90
20827;DHT22;10574;52.508;13.236;2022-10-04T20:17:55;12.00;99.90
20827;DHT22;10574;52.508;13.236;2022-10-04T20:23:09;12.00;99.90
20827;DHT22;10574;52.508;13.236;2022-10-04T20:28:35;12.00;99.90
20827;DHT22;10574;52.508;13.236;2022-10-04T20:31:06;12.00;99.90
20827;DHT22;10574;52.508;13.236;2022-10-04T20:36:06;12.00;99.90
20827;DHT22;10574;52.508;13.236;2022-10-04T20:38:57;11.90;99.90
20827;DHT22;10574;52.508;13.236;2022-10-04T20:47:29;11.90;99.90
20827;DHT22;10574;52.508;13.236;2022-10-04T20:49:56;11.90;99.90
20827;DHT22;10574;52.508;13.236;2022-10-04T20:52:30;11.90;99.90
20827;DHT22;10574;52.508;13.236;2022-10-04T20:54:59;11.90;99.90
20827;DHT22;10574;52.508;13.236;2022-10-04T20:57:29;11.80;99.90
20827;DHT22;10574;52.508;13.236;2022-10-04T20:59:57;11.90;99.90
20827;DHT22;10574;52.508;13.236;2022-10-04T21:02:25;11.90;99.90
20827;DHT22;10574;52.508;13.236;2022-10-04T21:04:54;11.80;99.90
20827;DHT22;10574;52.508;13.236;2022-10-04T21:07:25;11.80;99.90
20827;DHT22;10574;52.508;13.236;2022-10-04T21:09:53;11.80;99.90
20827;DHT22;10574;52.508;13.236;2022-10-04T21:12:36;11.80;99.90
20827;DHT22;10574;52.508;13.236;2022-10-04T21:15:11;11.80;99.90
20827;DHT22;10574;52.508;13.236;2022-10-04T21:17:35;11.70;99.90
20827;DHT22;10574;52.508;13.236;2022-10-04T21:20:05;11.70;99.90
20827;DHT22;10574;52.508;13.236;2022-10-04T21:22:34;11.70;99.90
20827;DHT22;10574;52.508;13.236;2022-10-04T21:25:27;11.70;99.90
20827;DHT22;10574;52.508;13.236;2022-10-04T21:27:37;11.70;99.90
20827;DHT22;10574;52.508;13.236;2022-10-04T21:30:16;11.60;99.90
20827;DHT22;10574;52.508;13.236;2022-10-04T21:32:43;11.60;99.90
20827;DHT22;10574;52.508;13.236;2022-10-04T21:35:11;11.50;99.90
20827;DHT22;10574;52.508;13.236;2022-10-04T21:37:39;11.50;99.90
20827;DHT22;10574;52.508;13.236;2022-10-04T21:40:07;11.50;99.90
20827;DHT22;10574;52.508;13.236;2022-10-04T21:42:35;11.40;99.90
20827;DHT22;10574;52.508;13.236;2022-10-04T21:45:03;11.40;99.90
20827;DHT22;10574;52.508;13.236;2022-10-04T21:47:31;11.40;99.90
20827;DHT22;10574;52.508;13.236;2022-10-04T21:49:58;11.30;99.90
20827;DHT22;10574;52.508;13.236;2022-10-04T21:52:26;11.30;99.90
20827;DHT22;10574;52.508;13.236;2022-10-04T21:54:53;11.30;99.90
20827;DHT22;10574;52.508;13.236;2022-10-04T21:57:21;11.30;99.90
20827;DHT22;10574;52.508;13.236;2022-10-04T21:59:49;11.30;99.90
20827;DHT22;10574;52.508;13.236;2022-10-04T22:02:17;11.20;99.90
20827;DHT22;10574;52.508;13.236;2022-10-04T22:04:44;11.20;99.90
20827;DHT22;10574;52.508;13.236;2022-10-04T22:07:12;11.20;99.90
20827;DHT22;10574;52.508;13.236;2022-10-04T22:09:39;11.20;99.90
20827;DHT22;10574;52.508;13.236;2022-10-04T22:12:07;11.20;99.90
20827;DHT22;10574;52.508;13.236;2022-10-04T22:14:34;11.30;99.90
20827;DHT22;10574;52.508;13.236;2022-10-04T22:17:02;11.30;99.90
20827;DHT22;10574;52.508;13.236;2022-10-04T22:19:30;11.30;99.90
20827;DHT22;10574;52.508;13.236;2022-10-04T22:21:57;11.40;99.90
20827;DHT22;10574;52.508;13.236;2022-10-04T22:24:25;11.50;99.90
20827;DHT22;10574;52.508;13.236;2022-10-04T22:26:52;11.60;99.90
20827;DHT22;10574;52.508;13.236;2022-10-04T22:29:20;11.70;99.90
20827;DHT22;10574;52.508;13.236;2022-10-04T22:31:52;11.80;99.90
20827;DHT22;10574;52.508;13.236;2022-10-04T22:34:21;11.80;99.90
20827;DHT22;10574;52.508;13.236;2022-10-04T22:36:49;11.80;99.90
20827;DHT22;10574;52.508;13.236;2022-10-04T22:39:19;11.80;99.90
20827;DHT22;10574;52.508;13.236;2022-10-04T22:41:57;11.80;99.90
20827;DHT22;10574;52.508;13.236;2022-10-04T22:44:36;11.70;99.90
20827;DHT22;10574;52.508;13.236;2022-10-04T22:47:01;11.60;99.90
20827;DHT22;10574;52.508;13.236;2022-10-04T22:49:33;11.50;99.90
20827;DHT22;10574;52.508;13.236;2022-10-04T22:52:05;11.30;99.90
20827;DHT22;10574;52.508;13.236;2022-10-04T22:54:33;11.20;99.90
20827;DHT22;10574;52.508;13.236;2022-10-04T22:57:01;11.20;99.90
20827;DHT22;10574;52.508;13.236;2022-10-04T22:59:41;11.10;99.90
20827;DHT22;10574;52.508;13.236;2022-10-04T23:02:14;11.10;99.90
20827;DHT22;10574;52.508;13.236;2022-10-04T23:04:50;11.10;99.90
20827;DHT22;10574;52.508;13.236;2022-10-04T23:07:18;11.10;99.90
20827;DHT22;10574;52.508;13.236;2022-10-04T23:09:47;11.10;99.90
20827;DHT22;10574;52.508;13.236;2022-10-04T23:12:14;11.20;99.90
20827;DHT22;10574;52.508;13.236;2022-10-04T23:14:42;11.20;99.90
20827;DHT22;10574;52.508;13.236;2022-10-04T23:17:27;11.20;99.90
20827;DHT22;10574;52.508;13.236;2022-10-04T23:20:09;11.30;99.90
20827;DHT22;10574;52.508;13.236;2022-10-04T23:22:27;11.40;99.90
20827;DHT22;10574;52.508;13.236;2022-10-04T23:24:56;11.40;99.90
20827;DHT22;10574;52.508;13.236;2022-10-04T23:27:23;11.40;99.90
20827;DHT22;10574;52.508;13.236;2022-10-04T23:29:59;11.40;99.90
20827;DHT22;10574;52.508;13.236;2022-10-04T23:32:21;11.40;99.90
20827;DHT22;10574;52.508;13.236;2022-10-04T23:34:49;11.40;99.90
20827;DHT22;10574;52.508;13.236;2022-10-04T23:37:19;11.40;99.90
20827;DHT22;10574;52.508;13.236;2022-10-04T23:39:48;11.30;99.90
20827;DHT22;10574;52.508;13.236;2022-10-04T23:42:18;11.40;99.90
20827;DHT22;10574;52.508;13.236;2022-10-04T23:44:49;11.40;99.90
20827;DHT22;10574;52.508;13.236;2022-10-04T23:47:19;11.40;99.90
20827;DHT22;10574;52.508;13.236;2022-10-04T23:49:50;11.40;99.90
20827;DHT22;10574;52.508;13.236;2022-10-04T23:52:23;11.30;99.90
20827;DHT22;10574;52.508;13.236;2022-10-04T23:54:52;11.30;99.90
20827;DHT22;10574;52.508;13.236;2022-10-04T23:57:22;11.20;99.90
20827;DHT22;10574;52.508;13.236;2022-10-04T23:59:51;11.20;99.90
